createdAt,value
2022-12-03T00:00:55.480Z,2.60
2022-12-03T00:03:25.614Z,2.70
2022-12-03T00:05:55.729Z,2.70
2022-12-03T00:08:25.757Z,2.70
2022-12-03T00:10:55.811Z,2.70
2022-12-03T00:13:28.414Z,2.50
2022-12-03T00:15:58.508Z,2.50
2022-12-03T00:18:28.650Z,2.60
2022-12-03T00:20:58.665Z,2.40
2022-12-03T00:23:28.703Z,2.30
2022-12-03T00:25:58.732Z,2.30
2022-12-03T00:28:31.355Z,2.40
2022-12-03T00:31:01.470Z,2.40
2022-12-03T00:33:31.863Z,2.40
2022-12-03T00:36:01.913Z,2.50
2022-12-03T00:38:31.938Z,2.40
2022-12-03T00:41:02.090Z,2.40
2022-12-03T00:43:35.174Z,2.40
2022-12-03T00:46:05.295Z,2.40
2022-12-03T00:48:35.545Z,2.30
2022-12-03T00:51:05.679Z,2.30
2022-12-03T00:53:35.750Z,2.40
2022-12-03T00:56:05.888Z,2.50
2022-12-03T00:58:38.725Z,2.50
2022-12-03T01:01:09.088Z,2.60
2022-12-03T01:03:39.470Z,2.60
2022-12-03T01:06:10.911Z,2.60
2022-12-03T01:08:40.989Z,2.60
2022-12-03T01:11:31.259Z,2.60
2022-12-03T01:14:03.894Z,2.60
2022-12-03T01:16:34.034Z,2.60
2022-12-03T01:19:04.547Z,2.60
2022-12-03T01:21:35.099Z,2.60
2022-12-03T01:24:05.750Z,2.60
2022-12-03T01:26:35.819Z,2.60
2022-12-03T01:29:09.243Z,2.70
2022-12-03T01:31:51.845Z,2.80
2022-12-03T01:34:21.896Z,2.80
2022-12-03T01:36:52.556Z,2.80
2022-12-03T01:39:23.222Z,2.90
2022-12-03T01:41:56.131Z,2.90
2022-12-03T01:44:33.428Z,2.90
2022-12-03T01:47:07.459Z,2.90
2022-12-03T01:49:46.175Z,2.90
2022-12-03T01:52:19.572Z,3.00
2022-12-03T01:54:55.567Z,3.10
2022-12-03T01:57:31.238Z,3.10
2022-12-03T02:00:04.764Z,3.00
2022-12-03T02:02:36.047Z,3.10
2022-12-03T02:05:19.384Z,3.00
2022-12-03T02:07:50.073Z,3.00
2022-12-03T02:10:26.452Z,3.00
2022-12-03T02:13:02.283Z,3.20
2022-12-03T02:15:35.268Z,3.20
2022-12-03T02:18:05.644Z,3.20
2022-12-03T02:20:46.915Z,3.10
2022-12-03T02:23:28.263Z,3.10
2022-12-03T02:26:00.900Z,3.10
2022-12-03T02:28:31.098Z,3.10
2022-12-03T02:31:01.249Z,3.10
2022-12-03T02:33:31.455Z,3.20
2022-12-03T02:36:03.927Z,3.10
2022-12-03T02:38:37.951Z,3.10
2022-12-03T02:41:36.823Z,3.10
2022-12-03T02:44:07.271Z,3.00
2022-12-03T02:46:38.367Z,2.90
2022-12-03T02:49:09.603Z,3.00
2022-12-03T02:51:39.664Z,3.00
2022-12-03T02:54:09.824Z,3.10
2022-12-03T02:56:42.539Z,3.20
2022-12-03T02:59:12.572Z,3.20
2022-12-03T03:01:42.751Z,3.30
2022-12-03T03:04:13.188Z,3.40
2022-12-03T03:06:43.639Z,3.40
2022-12-03T03:09:13.778Z,3.50
2022-12-03T03:11:46.565Z,3.60
2022-12-03T03:14:16.881Z,3.60
2022-12-03T03:16:55.782Z,3.80
2022-12-03T03:19:27.637Z,3.80
2022-12-03T03:21:58.044Z,3.80
2022-12-03T03:24:29.339Z,3.80
2022-12-03T03:27:02.021Z,3.90
2022-12-03T03:29:33.311Z,3.90
2022-12-03T03:32:04.798Z,3.90
2022-12-03T03:34:36.255Z,3.80
2022-12-03T03:37:06.662Z,3.80
2022-12-03T03:39:36.896Z,3.80
2022-12-03T03:42:09.807Z,3.80
2022-12-03T03:44:41.188Z,3.90
2022-12-03T03:47:11.343Z,3.90
2022-12-03T03:49:41.643Z,3.90
2022-12-03T03:52:12.487Z,4.00
2022-12-03T03:54:42.911Z,3.90
2022-12-03T03:57:15.741Z,3.90
2022-12-03T03:59:46.123Z,4.00
2022-12-03T04:02:23.336Z,3.90
2022-12-03T04:04:54.493Z,3.90
2022-12-03T04:07:24.729Z,3.90
2022-12-03T04:09:54.828Z,3.90
2022-12-03T04:12:39.935Z,3.90
2022-12-03T04:15:12.330Z,3.90
2022-12-03T04:17:42.394Z,3.90
2022-12-03T04:20:14.634Z,3.90
2022-12-03T04:22:42.083Z,3.90
2022-12-03T04:25:26.124Z,4.00
2022-12-03T04:28:11.620Z,4.00
2022-12-03T04:30:42.131Z,3.90
2022-12-03T04:33:24.719Z,3.90
2022-12-03T04:35:55.236Z,4.00
2022-12-03T04:38:25.329Z,4.00
2022-12-03T04:41:04.559Z,3.90
2022-12-03T04:43:58.215Z,4.00
2022-12-03T04:46:28.348Z,4.10
2022-12-03T04:48:58.539Z,4.10
2022-12-03T04:51:28.694Z,4.10
2022-12-03T04:53:58.743Z,4.10
2022-12-03T04:56:28.740Z,4.10
2022-12-03T04:59:01.433Z,4.10
2022-12-03T05:01:31.516Z,4.10
2022-12-03T05:04:01.782Z,4.20
2022-12-03T05:06:31.928Z,4.10
2022-12-03T05:09:01.970Z,4.20
2022-12-03T05:11:32.201Z,4.20
2022-12-03T05:14:04.957Z,4.20
2022-12-03T05:16:35.474Z,4.20
2022-12-03T05:19:06.640Z,4.20
2022-12-03T05:21:37.109Z,4.10
2022-12-03T05:24:08.660Z,4.00
2022-12-03T05:26:38.765Z,4.00
2022-12-03T05:29:11.387Z,4.00
2022-12-03T05:31:41.528Z,4.00
2022-12-03T05:34:11.555Z,4.10
2022-12-03T05:36:41.616Z,4.10
2022-12-03T05:39:11.640Z,4.00
2022-12-03T05:41:54.170Z,3.90
2022-12-03T05:44:26.791Z,3.90
2022-12-03T05:46:56.841Z,3.80
2022-12-03T05:49:26.939Z,3.90
2022-12-03T05:51:58.831Z,4.00
2022-12-03T05:54:29.402Z,3.90
2022-12-03T05:56:59.732Z,3.80
2022-12-03T05:59:32.464Z,3.90
2022-12-03T06:02:02.728Z,3.70
2022-12-03T06:04:32.824Z,3.90
2022-12-03T06:07:02.866Z,3.80
2022-12-03T06:09:32.897Z,3.80
2022-12-03T06:12:02.958Z,3.90
2022-12-03T06:14:35.865Z,3.90
2022-12-03T06:17:06.168Z,4.00
2022-12-03T06:19:36.404Z,4.00
2022-12-03T06:22:06.497Z,4.10
2022-12-03T06:24:36.558Z,4.20
2022-12-03T06:27:07.250Z,4.10
2022-12-03T06:29:40.156Z,4.10
2022-12-03T06:32:10.753Z,4.20
2022-12-03T06:34:41.186Z,4.20
2022-12-03T06:37:11.332Z,4.10
2022-12-03T06:39:41.389Z,4.10
2022-12-03T06:42:11.437Z,4.10
2022-12-03T06:44:44.137Z,4.30
2022-12-03T06:47:14.170Z,4.30
2022-12-03T06:49:44.270Z,4.30
2022-12-03T06:52:14.335Z,4.10
2022-12-03T06:54:44.402Z,4.30
2022-12-03T06:57:14.543Z,4.30
2022-12-03T06:59:47.205Z,4.40
2022-12-03T07:02:17.282Z,4.30
2022-12-03T07:04:47.307Z,4.30
2022-12-03T07:07:17.708Z,4.30
2022-12-03T07:09:48.751Z,4.30
2022-12-03T07:12:18.936Z,4.20
2022-12-03T07:14:52.326Z,4.20
2022-12-03T07:17:22.579Z,4.10
2022-12-03T07:19:52.902Z,4.10
2022-12-03T07:22:23.036Z,4.10
2022-12-03T07:24:53.349Z,4.00
2022-12-03T07:27:23.603Z,3.90
2022-12-03T07:29:56.269Z,4.10
2022-12-03T07:32:26.444Z,4.00
2022-12-03T07:34:56.651Z,3.90
2022-12-03T07:37:27.005Z,4.10
2022-12-03T07:39:57.045Z,4.10
2022-12-03T07:42:27.240Z,4.30
2022-12-03T07:45:00.029Z,4.20
2022-12-03T07:47:30.149Z,4.10
2022-12-03T07:50:00.199Z,4.10
2022-12-03T07:52:30.217Z,4.10
2022-12-03T07:55:00.298Z,4.10
2022-12-03T07:57:30.301Z,4.00
2022-12-03T08:00:02.933Z,4.00
2022-12-03T08:02:35.061Z,4.00
2022-12-03T08:05:05.314Z,4.00
2022-12-03T08:07:35.442Z,4.10
2022-12-03T08:10:06.179Z,4.20
2022-12-03T08:12:44.016Z,4.00
2022-12-03T08:15:20.361Z,4.00
2022-12-03T08:17:57.120Z,4.00
2022-12-03T08:20:29.815Z,4.00
2022-12-03T08:23:00.710Z,3.90
2022-12-03T08:25:34.410Z,4.00
2022-12-03T08:28:15.734Z,3.80
2022-12-03T08:31:02.217Z,3.70
2022-12-03T08:33:36.302Z,3.50
2022-12-03T08:36:17.276Z,3.40
2022-12-03T08:38:54.662Z,3.30
2022-12-03T08:41:39.207Z,3.10
2022-12-03T08:44:29.378Z,3.10
2022-12-03T08:47:15.785Z,3.40
2022-12-03T08:49:50.067Z,3.50
2022-12-03T08:52:23.665Z,3.60
2022-12-03T08:54:57.065Z,3.70
2022-12-03T08:57:34.171Z,3.60
2022-12-03T09:00:21.293Z,3.60
2022-12-03T09:02:56.730Z,3.60
2022-12-03T09:05:32.492Z,3.60
2022-12-03T09:08:02.860Z,3.70
2022-12-03T09:10:32.975Z,3.70
2022-12-03T09:13:03.052Z,3.80
2022-12-03T09:15:35.762Z,3.80
2022-12-03T09:18:08.535Z,3.80
2022-12-03T09:20:38.661Z,3.70
2022-12-03T09:23:09.628Z,3.80
2022-12-03T09:25:39.928Z,3.90
2022-12-03T09:28:10.358Z,3.90
2022-12-03T09:30:40.462Z,3.90
2022-12-03T09:33:14.125Z,4.00
2022-12-03T09:35:44.195Z,3.80
2022-12-03T09:38:14.555Z,3.80
2022-12-03T09:40:45.144Z,3.90
2022-12-03T09:43:16.508Z,4.00
2022-12-03T09:45:48.316Z,4.00
2022-12-03T09:48:24.193Z,4.00
2022-12-03T09:50:56.451Z,4.10
2022-12-03T09:53:30.156Z,4.10
2022-12-03T09:56:03.784Z,4.20
2022-12-03T09:58:35.036Z,4.40
2022-12-03T10:01:05.437Z,4.40
2022-12-03T10:03:39.109Z,4.50
2022-12-03T10:06:12.649Z,4.30
2022-12-03T10:08:42.807Z,4.30
2022-12-03T10:11:12.886Z,4.30
2022-12-03T10:13:43.955Z,4.10
2022-12-03T10:16:19.182Z,4.10
2022-12-03T10:18:55.005Z,4.00
2022-12-03T10:21:29.920Z,3.90
2022-12-03T10:24:23.462Z,3.90
2022-12-03T10:26:56.036Z,3.90
2022-12-03T10:29:33.562Z,3.80
2022-12-03T10:32:07.257Z,3.50
2022-12-03T10:34:42.339Z,3.40
2022-12-03T10:37:19.284Z,3.30
2022-12-03T10:39:59.268Z,3.20
2022-12-03T10:42:31.774Z,3.20
2022-12-03T10:45:19.769Z,3.20
2022-12-03T10:48:06.830Z,3.30
2022-12-03T10:50:39.748Z,3.50
2022-12-03T10:53:12.439Z,3.40
2022-12-03T10:55:45.831Z,3.50
2022-12-03T10:58:24.703Z,3.50
2022-12-03T11:00:58.258Z,3.70
2022-12-03T11:03:31.202Z,3.80
2022-12-03T11:06:06.039Z,3.60
2022-12-03T11:08:39.474Z,3.40
2022-12-03T11:11:18.873Z,3.50
2022-12-03T11:13:55.720Z,3.50
2022-12-03T11:17:13.350Z,3.60
2022-12-03T11:19:50.206Z,3.80
2022-12-03T11:22:31.121Z,3.80
2022-12-03T11:25:57.461Z,3.60
2022-12-03T11:28:55.804Z,3.50
2022-12-03T11:31:45.187Z,3.50
2022-12-03T11:34:52.639Z,3.50
2022-12-03T11:37:31.834Z,3.60
2022-12-03T11:40:39.331Z,3.70
2022-12-03T11:43:13.645Z,3.70
2022-12-03T11:45:44.035Z,3.40
2022-12-03T11:48:18.730Z,3.30
2022-12-03T11:50:55.084Z,3.40
2022-12-03T11:53:32.335Z,3.50
2022-12-03T11:56:09.280Z,3.50
2022-12-03T11:58:45.380Z,3.60
2022-12-03T12:01:18.426Z,3.60
2022-12-03T12:03:52.469Z,3.80
2022-12-03T12:06:24.599Z,3.90
2022-12-03T12:09:03.933Z,3.80
2022-12-03T12:11:37.306Z,3.90
2022-12-03T12:14:11.652Z,3.90
2022-12-03T12:16:50.174Z,3.90
2022-12-03T12:19:41.217Z,4.00
2022-12-03T12:22:31.360Z,4.10
2022-12-03T12:25:06.456Z,3.90
2022-12-03T12:27:45.246Z,3.60
2022-12-03T12:30:20.605Z,3.50
2022-12-03T12:32:53.779Z,3.30
2022-12-03T12:35:26.780Z,3.20
2022-12-03T12:38:00.600Z,3.30
2022-12-03T12:40:36.840Z,3.20
2022-12-03T12:43:25.742Z,3.30
2022-12-03T12:45:59.450Z,3.30
2022-12-03T12:48:36.851Z,3.20
2022-12-03T12:51:15.095Z,3.20
2022-12-03T12:53:45.798Z,3.10
2022-12-03T12:56:27.504Z,3.10
2022-12-03T12:59:01.447Z,3.10
2022-12-03T13:01:35.546Z,3.00
2022-12-03T13:04:14.592Z,2.90
2022-12-03T13:06:45.692Z,2.80
2022-12-03T13:09:20.954Z,2.90
2022-12-03T13:11:56.795Z,3.00
2022-12-03T13:14:29.709Z,2.90
2022-12-03T13:17:02.395Z,2.90
2022-12-03T13:19:46.246Z,2.70
2022-12-03T13:22:21.988Z,2.90
2022-12-03T13:24:53.946Z,3.00
2022-12-03T13:27:31.402Z,3.00
2022-12-03T13:30:05.202Z,3.10
2022-12-03T13:32:39.421Z,3.30
2022-12-03T13:35:31.362Z,3.30
2022-12-03T13:38:01.973Z,3.10
2022-12-03T13:40:35.227Z,3.20
2022-12-03T13:43:17.194Z,3.20
2022-12-03T13:45:51.648Z,3.30
2022-12-03T13:48:27.047Z,3.20
2022-12-03T13:50:58.793Z,2.80
2022-12-03T13:53:35.499Z,2.70
2022-12-03T13:56:30.015Z,2.60
2022-12-03T13:59:04.443Z,2.50
2022-12-03T14:01:34.667Z,2.40
2022-12-03T14:04:04.766Z,2.40
2022-12-03T14:06:35.385Z,2.40
2022-12-03T14:09:06.300Z,2.30
2022-12-03T14:11:48.818Z,2.50
2022-12-03T14:14:21.594Z,2.50
2022-12-03T14:16:56.718Z,2.40
2022-12-03T14:19:29.660Z,2.30
2022-12-03T14:22:00.323Z,2.30
2022-12-03T14:24:30.471Z,2.40
2022-12-03T14:27:00.514Z,2.40
2022-12-03T14:29:33.184Z,2.40
2022-12-03T14:32:03.409Z,2.50
2022-12-03T14:34:33.464Z,2.40
2022-12-03T14:37:03.631Z,2.40
2022-12-03T14:39:33.797Z,2.30
2022-12-03T14:42:16.794Z,2.30
2022-12-03T14:44:52.234Z,2.30
2022-12-03T14:47:25.277Z,2.20
2022-12-03T14:49:56.220Z,2.20
2022-12-03T14:52:26.479Z,2.30
2022-12-03T14:54:56.726Z,2.20
2022-12-03T14:57:27.779Z,2.20
2022-12-03T15:00:00.491Z,2.10
2022-12-03T15:02:30.664Z,2.20
2022-12-03T15:05:00.920Z,2.10
2022-12-03T15:07:32.008Z,2.10
2022-12-03T15:10:02.221Z,2.00
2022-12-03T15:12:32.293Z,2.00
2022-12-03T15:15:04.920Z,2.10
2022-12-03T15:17:35.016Z,2.00
2022-12-03T15:20:05.144Z,1.90
2022-12-03T15:22:35.213Z,1.90
2022-12-03T15:25:06.064Z,2.00
2022-12-03T15:27:36.182Z,1.90
2022-12-03T15:30:11.222Z,1.90
2022-12-03T15:32:43.011Z,1.80
2022-12-03T15:35:17.637Z,1.80
2022-12-03T15:37:47.964Z,1.80
2022-12-03T15:40:18.373Z,1.80
2022-12-03T15:42:48.860Z,1.80
2022-12-03T15:45:21.956Z,1.80
2022-12-03T15:47:52.264Z,1.90
2022-12-03T15:50:22.403Z,1.80
2022-12-03T15:52:52.488Z,1.80
2022-12-03T15:55:22.923Z,1.90
2022-12-03T15:57:53.171Z,1.90
2022-12-03T16:00:26.474Z,1.90
2022-12-03T16:02:56.606Z,1.90
2022-12-03T16:05:27.216Z,1.80
2022-12-03T16:07:57.318Z,1.80
2022-12-03T16:10:43.091Z,1.80
2022-12-03T16:13:13.143Z,1.90
2022-12-03T16:15:45.866Z,1.90
2022-12-03T16:18:16.053Z,2.10
2022-12-03T16:20:46.275Z,2.00
2022-12-03T16:23:16.629Z,2.00
2022-12-03T16:25:46.721Z,1.90
2022-12-03T16:28:17.313Z,1.90
2022-12-03T16:30:50.018Z,1.90
2022-12-03T16:33:25.648Z,2.00
2022-12-03T16:35:57.438Z,2.00
2022-12-03T16:38:27.747Z,2.00
2022-12-03T16:40:57.806Z,2.00
2022-12-03T16:43:27.875Z,2.10
2022-12-03T16:46:20.875Z,2.00
2022-12-03T16:48:51.565Z,1.90
2022-12-03T16:51:22.438Z,1.90
2022-12-03T16:53:52.585Z,1.90
2022-12-03T16:56:23.043Z,1.90
2022-12-03T16:58:53.140Z,1.90
2022-12-03T17:01:27.181Z,2.10
2022-12-03T17:03:57.292Z,2.10
2022-12-03T17:06:27.327Z,2.10
2022-12-03T17:08:57.352Z,2.10
2022-12-03T17:11:27.445Z,2.20
2022-12-03T17:13:57.481Z,2.20
2022-12-03T17:16:30.252Z,2.20
2022-12-03T17:19:00.356Z,2.30
2022-12-03T17:21:33.719Z,2.20
2022-12-03T17:24:05.301Z,2.00
2022-12-03T17:26:35.417Z,2.00
2022-12-03T17:29:05.558Z,2.00
2022-12-03T17:31:41.963Z,2.00
2022-12-03T17:34:13.039Z,2.00
2022-12-03T17:36:43.082Z,2.00
2022-12-03T17:39:13.151Z,2.00
2022-12-03T17:41:43.233Z,2.10
2022-12-03T17:44:19.252Z,2.00
2022-12-03T17:46:53.568Z,2.00
2022-12-03T17:49:28.308Z,2.00
2022-12-03T17:52:01.507Z,2.10
2022-12-03T17:54:55.129Z,2.20
2022-12-03T17:57:21.895Z,2.10
2022-12-03T17:59:52.340Z,2.00
2022-12-03T18:02:25.239Z,2.00
2022-12-03T18:04:55.287Z,2.00
2022-12-03T18:07:25.458Z,2.00
2022-12-03T18:09:55.906Z,2.10
2022-12-03T18:12:26.164Z,2.20
2022-12-03T18:14:56.185Z,2.30
2022-12-03T18:17:29.417Z,2.30
2022-12-03T18:19:59.513Z,2.40
2022-12-03T18:22:30.646Z,2.30
2022-12-03T18:25:01.030Z,2.30
2022-12-03T18:27:31.051Z,2.20
2022-12-03T18:30:01.089Z,2.10
2022-12-03T18:32:33.827Z,2.10
2022-12-03T18:35:03.985Z,2.20
2022-12-03T18:37:35.622Z,2.30
2022-12-03T18:40:12.844Z,2.30
2022-12-03T18:42:43.471Z,2.30
2022-12-03T18:45:16.604Z,2.30
2022-12-03T18:47:50.054Z,2.20
2022-12-03T18:50:20.782Z,2.30
2022-12-03T18:52:50.952Z,2.10
2022-12-03T18:55:22.978Z,2.20
2022-12-03T18:57:53.009Z,2.20
2022-12-03T19:00:23.771Z,2.30
2022-12-03T19:03:04.695Z,2.20
2022-12-03T19:05:37.811Z,2.20
2022-12-03T19:08:14.724Z,2.20
2022-12-03T19:10:45.709Z,2.20
2022-12-03T19:13:15.779Z,2.20
2022-12-03T19:15:46.406Z,2.30
2022-12-03T19:18:19.173Z,2.30
2022-12-03T19:20:49.212Z,2.30
2022-12-03T19:23:19.771Z,2.30
2022-12-03T19:25:59.148Z,2.30
2022-12-03T19:28:31.514Z,2.40
2022-12-03T19:31:04.947Z,2.50
2022-12-03T19:33:38.259Z,2.40
2022-12-03T19:36:11.597Z,2.40
2022-12-03T19:38:42.411Z,2.30
2022-12-03T19:41:14.610Z,2.30
2022-12-03T19:43:44.769Z,2.30
2022-12-03T19:46:15.718Z,2.30
2022-12-03T19:48:49.336Z,2.20
2022-12-03T19:51:34.127Z,2.20
2022-12-03T19:54:05.763Z,2.10
2022-12-03T19:56:36.543Z,2.10
2022-12-03T19:59:08.059Z,2.10
2022-12-03T20:01:40.876Z,2.10
2022-12-03T20:04:15.672Z,2.10
2022-12-03T20:06:45.965Z,2.10
2022-12-03T20:09:18.262Z,2.20
2022-12-03T20:11:49.154Z,2.30
2022-12-03T20:14:20.893Z,2.30
2022-12-03T20:16:51.427Z,2.30
2022-12-03T20:19:24.086Z,2.30
2022-12-03T20:21:59.022Z,2.20
2022-12-03T20:24:32.247Z,2.10
2022-12-03T20:27:02.307Z,2.10
2022-12-03T20:29:32.324Z,1.90
2022-12-03T20:32:04.053Z,1.80
2022-12-03T20:34:37.044Z,1.90
2022-12-03T20:37:07.115Z,1.80
2022-12-03T20:39:37.202Z,1.80
2022-12-03T20:42:07.528Z,1.90
2022-12-03T20:44:38.196Z,2.00
2022-12-03T20:47:08.378Z,2.20
2022-12-03T20:49:41.826Z,2.20
2022-12-03T20:52:11.866Z,2.10
2022-12-03T20:54:41.997Z,2.00
2022-12-03T20:57:12.082Z,2.00
2022-12-03T20:59:42.144Z,1.90
2022-12-03T21:02:13.371Z,1.90
2022-12-03T21:04:46.067Z,1.90
2022-12-03T21:07:16.151Z,1.90
2022-12-03T21:09:46.252Z,1.90
2022-12-03T21:12:16.287Z,2.00
2022-12-03T21:14:46.508Z,1.90
2022-12-03T21:17:16.662Z,1.90
2022-12-03T21:19:49.701Z,1.80
2022-12-03T21:22:19.781Z,1.80
2022-12-03T21:24:49.791Z,1.90
2022-12-03T21:27:21.872Z,1.90
2022-12-03T21:29:52.857Z,1.90
2022-12-03T21:32:23.181Z,1.90
2022-12-03T21:34:55.881Z,1.90
2022-12-03T21:37:25.975Z,2.00
2022-12-03T21:39:56.204Z,1.90
2022-12-03T21:42:36.170Z,1.90
2022-12-03T21:45:09.324Z,2.00
2022-12-03T21:47:39.494Z,2.00
2022-12-03T21:50:13.931Z,2.00
2022-12-03T21:52:44.463Z,2.00
2022-12-03T21:55:14.624Z,2.00
2022-12-03T21:57:44.660Z,2.10
2022-12-03T22:00:17.169Z,2.20
2022-12-03T22:02:47.448Z,2.20
2022-12-03T22:05:20.686Z,2.10
2022-12-03T22:07:50.832Z,2.00
2022-12-03T22:10:21.195Z,2.00
2022-12-03T22:12:51.465Z,1.90
2022-12-03T22:15:21.652Z,1.90
2022-12-03T22:17:52.024Z,1.90
2022-12-03T22:20:24.777Z,2.00
2022-12-03T22:22:54.826Z,2.10
2022-12-03T22:25:25.069Z,2.10
2022-12-03T22:27:55.105Z,2.10
2022-12-03T22:30:25.427Z,2.10
2022-12-03T22:32:55.439Z,2.10
2022-12-03T22:35:28.043Z,2.20
2022-12-03T22:37:58.114Z,2.20
2022-12-03T22:40:28.127Z,2.30
2022-12-03T22:42:58.119Z,2.40
2022-12-03T22:45:28.152Z,2.50
2022-12-03T22:47:58.151Z,2.40
2022-12-03T22:50:30.749Z,2.20
2022-12-03T22:53:00.822Z,2.20
2022-12-03T22:55:31.708Z,2.10
2022-12-03T22:58:01.770Z,2.20
2022-12-03T23:00:36.069Z,2.20
2022-12-03T23:03:07.603Z,2.20
2022-12-03T23:05:41.915Z,2.20
2022-12-03T23:08:15.974Z,2.30
2022-12-03T23:10:48.986Z,2.30
2022-12-03T23:13:19.796Z,2.30
2022-12-03T23:15:52.848Z,2.40
2022-12-03T23:18:23.520Z,2.40
2022-12-03T23:20:59.215Z,2.50
2022-12-03T23:23:30.803Z,2.30
2022-12-03T23:26:02.216Z,2.20
2022-12-03T23:28:34.918Z,2.20
2022-12-03T23:31:06.426Z,2.20
2022-12-03T23:33:38.534Z,2.20
2022-12-03T23:36:13.116Z,2.20
2022-12-03T23:38:43.451Z,2.40
2022-12-03T23:41:16.700Z,2.40
2022-12-03T23:43:47.067Z,2.30
2022-12-03T23:46:21.071Z,2.50
2022-12-03T23:48:51.526Z,2.60
2022-12-03T23:51:27.447Z,2.80
2022-12-03T23:53:58.616Z,2.70
2022-12-03T23:56:32.552Z,2.60
2022-12-03T23:59:02.582Z,2.70
